DMAD Reservoir




Date Reservoir Capacity (AF) Hourly Avg. Stream Stage (ft) Reservoir Outflow (cfs) Reservoir Gate 1 Height (ft) Reservoir Gate 2 Height (ft) Reservoir Gate 3 Height (ft) Stream Flow (cfs) Stream Conductivity (ppm) Battery Voltage (V) Reservoir Height (ft) Canal Flow (cfs) Canal Height (ft) Canal Flow 2 (ft)
07/01/2018 3,303 344 2.23 0.00 2.73 0.00 0.00 13.48 57.59 0.00 0.00
07/02/2018 2,486 141 0.84 0.00 1.33 0.00 0.00 13.19 56.27 0.00 0.00
07/03/2018 3,273 194 0.84 0.00 1.94 0.00 0.00 13.31 57.54 0.00 0.00
07/04/2018 3,297 171 0.84 0.00 1.61 0.00 0.00 13.29 57.58 0.00 0.00
07/05/2018 3,404 103 0.84 0.00 0.60 0.00 0.00 13.47 57.76 0.00 0.00
07/06/2018 3,422 96 0.84 0.00 0.50 0.00 0.00 13.49 57.79 0.00 0.00
07/07/2018 3,375 96 0.84 0.00 0.50 0.00 0.00 13.39 57.71 0.00 0.00
07/08/2018 3,321 95 0.84 0.00 0.50 0.00 0.00 13.44 57.62 0.00 0.00
07/09/2018 3,255 85 0.84 0.00 0.37 0.00 0.00 13.45 57.51 0.00 0.00
07/10/2018 3,153 73 0.84 0.00 0.20 0.00 0.00 13.48 57.34 0.00 0.00
07/11/2018 3,219 73 0.84 0.00 0.20 0.00 0.00 13.49 57.45 0.00 0.00
07/12/2018 3,243 83 0.84 0.00 0.34 0.00 0.00 13.33 57.49 0.00 0.00
07/13/2018 3,249 88 0.84 0.00 0.41 0.00 0.00 13.34 57.50 0.00 0.00
07/14/2018 3,327 52 0.52 0.00 0.21 0.00 0.00 13.24 57.63 0.00 0.00
07/15/2018 3,422 47 0.26 0.00 0.40 0.00 0.00 13.49 57.79 0.00 0.00
07/16/2018 3,452 48 0.26 0.00 0.40 0.00 0.00 13.44 57.84 0.00 0.00
07/17/2018 3,452 48 0.26 0.00 0.40 0.00 0.00 13.47 57.84 0.00 0.00
07/18/2018 3,452 47 0.26 0.00 0.40 0.00 0.00 13.43 57.84 0.00 0.00
07/19/2018 3,375 47 0.26 0.00 0.40 0.00 0.00 13.39 57.71 0.00 0.00
07/20/2018 3,297 47 0.26 0.00 0.40 0.00 0.00 13.44 57.58 0.00 0.00
07/21/2018 3,279 22 0.20 0.00 0.11 0.00 0.00 13.28 57.55 0.00 0.00
07/22/2018 3,345 2 0.00 0.00 0.03 0.00 0.00 13.40 57.66 0.00 0.00
07/23/2018 3,375 48 0.00 0.00 0.67 0.00 0.00 13.35 57.71 0.00 0.00
07/24/2018 3,309 71 0.00 0.00 1.00 0.00 0.00 13.41 57.60 0.00 0.00
07/25/2018 3,201 93 0.00 0.00 1.34 0.00 0.00 13.37 57.42 0.00 0.00
07/26/2018 3,416 190 0.00 0.00 2.73 0.00 0.00 13.31 57.78 0.00 0.00
07/27/2018 3,141 197 0.00 0.00 2.90 0.00 0.00 13.40 57.32 0.00 0.00
07/28/2018 2,645 187 0.00 0.00 2.90 0.00 0.00 13.45 56.52 0.00 0.00
07/29/2018 2,531 185 0.00 0.00 2.90 0.00 0.00 13.44 56.34 0.00 0.00
07/30/2018 2,601 139 0.00 0.00 2.15 0.00 0.00 13.35 56.45 0.00 0.00
07/31/2018 2,633 92 0.00 0.00 1.40 0.00 0.00 13.40 56.50 0.00 0.00
Average 103 0.00 0.00
Maximum 344 0.00 0.00
Minimum 2 0.00 0.00
Total Volume (AF) 6,354 0.00 0.00